This is the latest recevied weather packets stored in our database for station/object EFHK. If no packets are shown the sender has not sent any weather packets the latest 10 day(s).
| Time | Temp. | Humidity | Pressure | Rain* | Wind** | Luminosity | Snow |
|---|---|---|---|---|---|---|---|
| 1777966399 | 11.67° C | 54% | 1000 hPa | - | - | - | - |
| 1777965803 | 11.67° C | 54% | 1000 hPa | - | - | - | - |
| 1777965198 | 10.56° C | 62% | 1000 hPa | - | - | - | - |
| 1777964601 | 10.56° C | 62% | 1000 hPa | - | - | - | - |
| 1777964001 | 10.56° C | 62% | 1000 hPa | - | - | - | - |
| 1777963402 | 10° C | 71% | 1000 hPa | - | - | - | - |
| 1777962798 | 10° C | 71% | 1000 hPa | - | - | - | - |
| 1777962197 | 10° C | 71% | 1000 hPa | - | - | - | - |
| 1777961601 | 10° C | 66% | 1000 hPa | - | - | - | - |
| 1777961000 | 10° C | 66% | 1000 hPa | - | - | - | - |
| 1777960406 | 10° C | 66% | 1000 hPa | - | - | - | - |
| 1777959805 | 7.78° C | 75% | 1000 hPa | - | - | - | - |
| 1777959200 | 7.78° C | 75% | 1000 hPa | - | - | - | - |
| 1777958601 | 7.78° C | 75% | 1000 hPa | - | - | - | - |
| 1777958001 | 6.67° C | 81% | 1000 hPa | - | - | - | - |
| 1777957402 | 6.67° C | 81% | 1000 hPa | - | - | - | - |
| 1777956798 | 6.67° C | 81% | 1000 hPa | - | - | - | - |
| 1777956199 | 5° C | 93% | 1024 hPa | - | - | - | - |
| 1777955599 | 5° C | 93% | 1024 hPa | - | - | - | - |
| 1777954997 | 5° C | 93% | 1024 hPa | - | - | - | - |
| 1777954827 | 5° C | 93% | 1000 hPa | - | - | - | - |
| 1777954402 | 5° C | 93% | 1000 hPa | - | - | - | - |
| 1777953200 | 5° C | 93% | 1000 hPa | - | - | - | - |
| 1777952603 | 5° C | 93% | 1023.7 hPa | - | - | - | - |
| 1777952000 | 5° C | 93% | 1023.7 hPa | - | - | - | - |
* Rain since midnight (hover to see other rain measurements)
** Current wind speed in m/s (hover to see current wind gust speed)